createdAt,value
2022-11-11T00:01:15.871Z,0.57
2022-11-11T00:03:44.266Z,0.20
2022-11-11T00:06:14.183Z,0.30
2022-11-11T00:08:44.117Z,0.40
2022-11-11T00:11:14.149Z,0.30
2022-11-11T00:13:43.863Z,0.50
2022-11-11T00:16:13.719Z,0.50
2022-11-11T00:19:00.844Z,0.20
2022-11-11T00:21:43.240Z,0.52
2022-11-11T00:24:40.101Z,0.20
2022-11-11T00:27:09.053Z,0.20
2022-11-11T00:29:37.662Z,0.20
2022-11-11T00:32:24.850Z,0.10
2022-11-11T00:35:11.982Z,0.20
2022-11-11T00:37:40.783Z,0.22
2022-11-11T00:40:13.536Z,0.35
2022-11-11T00:42:42.137Z,0.13
2022-11-11T00:45:11.865Z,0.30
2022-11-11T00:47:57.717Z,0.70
2022-11-11T00:50:45.736Z,0.60
2022-11-11T00:53:15.404Z,0.55
2022-11-11T00:55:45.006Z,0.20
2022-11-11T00:58:13.166Z,0.32
2022-11-11T01:00:41.273Z,0.43
2022-11-11T01:03:09.800Z,0.40
2022-11-11T01:05:38.713Z,0.50
2022-11-11T01:08:07.021Z,0.40
2022-11-11T01:10:42.174Z,0.40
2022-11-11T01:13:22.650Z,0.40
2022-11-11T01:15:53.133Z,0.80
2022-11-11T01:18:23.686Z,0.50
2022-11-11T01:20:59.886Z,0.77
2022-11-11T01:23:33.059Z,0.82
2022-11-11T01:26:03.694Z,0.63
2022-11-11T01:28:33.471Z,0.65
2022-11-11T01:31:06.114Z,0.57
2022-11-11T01:33:34.622Z,0.35
2022-11-11T01:36:08.332Z,0.50
2022-11-11T01:38:37.154Z,0.50
2022-11-11T01:41:26.541Z,0.47
2022-11-11T01:43:56.108Z,0.30
2022-11-11T01:46:35.899Z,0.75
2022-11-11T01:49:21.764Z,0.43
2022-11-11T01:51:56.528Z,0.60
2022-11-11T01:54:29.641Z,0.63
2022-11-11T01:57:03.079Z,0.47
2022-11-11T01:59:33.779Z,0.60
2022-11-11T02:02:07.402Z,0.70
2022-11-11T02:04:55.318Z,0.60
2022-11-11T02:07:24.895Z,0.50
2022-11-11T02:09:55.313Z,0.93
2022-11-11T02:12:41.167Z,0.90
2022-11-11T02:15:11.153Z,0.85
2022-11-11T02:17:39.523Z,0.63
2022-11-11T02:20:11.114Z,0.32
2022-11-11T02:22:47.668Z,0.50
2022-11-11T02:25:22.032Z,0.73
2022-11-11T02:27:53.294Z,0.45
2022-11-11T02:30:22.645Z,0.43
2022-11-11T02:32:52.573Z,0.30
2022-11-11T02:35:22.939Z,0.70
2022-11-11T02:37:53.737Z,0.40
2022-11-11T02:40:28.925Z,0.73
2022-11-11T02:42:56.278Z,0.45
2022-11-11T02:45:24.616Z,1.10
2022-11-11T02:47:52.948Z,0.35
2022-11-11T02:50:21.265Z,0.88
2022-11-11T02:52:50.012Z,0.70
2022-11-11T02:55:18.441Z,0.88
2022-11-11T02:57:48.298Z,0.65
2022-11-11T03:00:18.400Z,0.85
2022-11-11T03:02:46.747Z,0.73
2022-11-11T03:05:15.259Z,0.65
2022-11-11T03:07:43.960Z,0.55
2022-11-11T03:10:12.443Z,0.70
2022-11-11T03:12:41.376Z,0.85
2022-11-11T03:15:12.243Z,0.63
2022-11-11T03:17:42.450Z,0.77
2022-11-11T03:23:04.610Z,0.80
2022-11-11T03:25:38.372Z,0.85
2022-11-11T03:28:06.799Z,0.95
2022-11-11T03:30:36.821Z,1.17
2022-11-11T03:33:05.164Z,0.80
2022-11-11T03:35:34.077Z,1.08
2022-11-11T03:38:18.647Z,0.77
2022-11-11T03:40:48.370Z,0.43
2022-11-11T03:43:18.481Z,0.70
2022-11-11T03:45:48.333Z,0.43
2022-11-11T03:48:16.732Z,0.65
2022-11-11T03:50:47.390Z,0.90
2022-11-11T03:53:16.400Z,0.30
2022-11-11T03:55:45.237Z,0.38
2022-11-11T03:58:13.917Z,0.30
2022-11-11T04:00:42.873Z,0.47
2022-11-11T04:03:33.314Z,0.40
2022-11-11T04:06:18.800Z,0.32
2022-11-11T04:09:06.743Z,0.40
2022-11-11T04:11:38.500Z,0.32
2022-11-11T04:14:23.258Z,0.20
2022-11-11T04:16:51.846Z,0.13
2022-11-11T04:19:39.244Z,0.28
2022-11-11T04:22:07.431Z,0.20
2022-11-11T04:24:53.077Z,0.20
2022-11-11T04:27:21.662Z,0.20
2022-11-11T04:29:48.764Z,0.63
2022-11-11T04:32:39.354Z,0.00
2022-11-11T04:35:10.707Z,0.22
2022-11-11T04:37:50.099Z,0.10
2022-11-11T04:40:36.660Z,0.20
2022-11-11T04:43:04.793Z,0.08
2022-11-11T04:45:32.173Z,0.10
2022-11-11T04:48:02.265Z,0.10
2022-11-11T04:50:33.746Z,0.25
2022-11-11T04:53:02.849Z,0.25
2022-11-11T04:55:48.441Z,0.30
2022-11-11T04:58:18.972Z,0.20
2022-11-11T05:00:47.234Z,0.45
2022-11-11T05:03:19.268Z,0.35
2022-11-11T05:06:08.051Z,0.40
2022-11-11T05:08:55.439Z,0.30
2022-11-11T05:11:25.009Z,0.47
2022-11-11T05:14:10.974Z,0.70
2022-11-11T05:16:59.961Z,0.50
2022-11-11T05:19:45.431Z,0.80
2022-11-11T05:22:18.119Z,1.08
2022-11-11T05:25:03.560Z,1.20
2022-11-11T05:27:31.861Z,0.85
2022-11-11T05:30:00.365Z,1.23
2022-11-11T05:32:28.544Z,1.55
2022-11-11T05:34:56.918Z,1.25
2022-11-11T05:37:26.426Z,0.90
2022-11-11T05:39:54.598Z,0.90
2022-11-11T05:42:22.810Z,1.42
2022-11-11T05:44:51.105Z,0.98
2022-11-11T05:47:19.486Z,1.27
2022-11-11T05:49:47.658Z,1.15
2022-11-11T05:52:17.422Z,1.08
2022-11-11T05:54:47.587Z,1.42
2022-11-11T05:59:43.894Z,0.98
2022-11-11T06:02:12.472Z,1.52
2022-11-11T06:04:40.642Z,1.17
2022-11-11T06:07:08.888Z,1.50
2022-11-11T06:09:37.036Z,1.50
2022-11-11T06:12:07.252Z,1.85
2022-11-11T06:17:03.083Z,1.17
2022-11-11T06:19:31.166Z,1.27
2022-11-11T06:21:59.269Z,1.30
2022-11-11T06:24:27.482Z,1.85
2022-11-11T06:26:56.467Z,1.70
2022-11-11T06:29:26.186Z,1.38
2022-11-11T06:31:54.524Z,1.85
2022-11-11T06:34:23.150Z,1.05
2022-11-11T06:36:51.588Z,2.30
2022-11-11T06:39:19.804Z,1.60
2022-11-11T06:41:47.945Z,1.95
2022-11-11T06:44:16.106Z,1.50
2022-11-11T06:46:45.884Z,0.88
2022-11-11T06:49:14.102Z,1.42
2022-11-11T06:51:42.221Z,1.30
2022-11-11T06:54:10.386Z,1.50
2022-11-11T06:56:38.515Z,1.77
2022-11-11T06:59:06.580Z,1.88
2022-11-11T07:01:34.665Z,1.55
2022-11-11T07:04:04.202Z,1.20
2022-11-11T07:06:32.411Z,1.52
2022-11-11T07:09:00.777Z,1.77
2022-11-11T07:11:28.795Z,1.30
2022-11-11T07:13:57.072Z,1.25
2022-11-11T07:16:25.179Z,1.45
2022-11-11T07:18:53.360Z,1.70
2022-11-11T07:21:24.068Z,1.20
2022-11-11T07:23:52.488Z,1.42
2022-11-11T07:26:20.662Z,1.75
2022-11-11T07:28:50.950Z,1.20
2022-11-11T07:31:18.995Z,1.58
2022-11-11T07:33:47.187Z,2.30
2022-11-11T07:36:15.498Z,1.30
2022-11-11T07:38:45.057Z,1.48
2022-11-11T07:41:13.229Z,1.23
2022-11-11T07:43:41.395Z,1.20
2022-11-11T07:46:09.528Z,1.83
2022-11-11T07:48:40.522Z,1.33
2022-11-11T07:51:08.697Z,1.95
2022-11-11T07:53:36.838Z,1.42
2022-11-11T07:56:06.958Z,1.67
2022-11-11T08:01:07.594Z,1.42
2022-11-11T08:03:49.842Z,1.50
2022-11-11T08:06:18.797Z,1.88
2022-11-11T08:08:47.276Z,1.55
2022-11-11T08:11:17.457Z,1.20
2022-11-11T08:16:15.133Z,1.23
2022-11-11T08:18:43.774Z,1.55
2022-11-11T08:21:11.998Z,0.98
2022-11-11T08:26:30.082Z,1.35
2022-11-11T08:28:58.792Z,1.23
2022-11-11T08:31:27.118Z,1.80
2022-11-11T08:33:55.289Z,2.10
2022-11-11T08:36:25.531Z,1.88
2022-11-11T08:38:54.566Z,1.52
2022-11-11T08:41:23.892Z,1.48
2022-11-11T08:43:57.153Z,1.38
2022-11-11T08:46:25.954Z,1.98
2022-11-11T08:48:54.779Z,1.60
2022-11-11T08:51:22.905Z,1.60
2022-11-11T08:53:51.234Z,1.45
2022-11-11T08:56:19.510Z,2.05
2022-11-11T08:58:47.587Z,1.38
2022-11-11T09:01:17.127Z,2.13
2022-11-11T09:03:46.322Z,1.42
2022-11-11T09:06:15.026Z,0.60
2022-11-11T09:08:44.702Z,1.60
2022-11-11T09:11:18.881Z,1.35
2022-11-11T09:13:48.718Z,1.30
2022-11-11T09:16:18.235Z,1.55
2022-11-11T09:18:47.618Z,1.55
2022-11-11T09:21:15.845Z,1.65
2022-11-11T09:23:44.132Z,1.20
2022-11-11T09:26:12.476Z,0.52
2022-11-11T09:28:45.917Z,0.98
2022-11-11T09:34:08.422Z,0.90
2022-11-11T09:36:36.588Z,1.02
2022-11-11T09:39:05.046Z,1.02
2022-11-11T09:41:45.855Z,1.17
2022-11-11T09:44:28.295Z,1.05
2022-11-11T09:47:05.909Z,1.05
2022-11-11T09:49:44.411Z,1.48
2022-11-11T09:52:18.793Z,1.35
2022-11-11T09:54:52.714Z,1.30
2022-11-11T09:57:28.814Z,1.05
2022-11-11T10:00:04.533Z,1.20
2022-11-11T10:02:48.357Z,1.45
2022-11-11T10:05:20.585Z,1.52
2022-11-11T10:07:54.083Z,1.33
2022-11-11T10:10:31.264Z,1.52
2022-11-11T10:13:00.101Z,1.58
2022-11-11T10:15:35.097Z,1.02
2022-11-11T10:18:19.144Z,0.82
2022-11-11T10:20:54.028Z,1.55
2022-11-11T10:23:30.562Z,1.65
2022-11-11T10:26:03.276Z,1.38
2022-11-11T10:28:37.147Z,1.95
2022-11-11T10:31:12.915Z,1.75
2022-11-11T10:33:49.462Z,1.52
2022-11-11T10:36:20.672Z,1.05
2022-11-11T10:38:54.616Z,1.52
2022-11-11T10:41:28.938Z,1.73
2022-11-11T10:43:58.279Z,1.85
2022-11-11T10:46:30.677Z,1.17
2022-11-11T10:49:05.155Z,1.42
2022-11-11T10:51:40.839Z,2.50
2022-11-11T10:54:15.445Z,1.80
2022-11-11T10:56:47.929Z,1.90
2022-11-11T10:59:20.609Z,1.65
2022-11-11T11:01:59.251Z,1.52
2022-11-11T11:04:37.123Z,1.40
2022-11-11T11:07:07.687Z,0.90
2022-11-11T11:09:41.499Z,1.52
2022-11-11T11:12:16.004Z,1.67
2022-11-11T11:14:47.376Z,1.33
2022-11-11T11:17:21.237Z,1.33
2022-11-11T11:20:09.248Z,1.60
2022-11-11T11:23:00.446Z,0.70
2022-11-11T11:25:30.774Z,1.65
2022-11-11T11:28:11.189Z,1.40
2022-11-11T11:31:02.023Z,1.80
2022-11-11T11:33:51.416Z,1.60
2022-11-11T11:36:22.771Z,1.33
2022-11-11T11:38:51.887Z,0.82
2022-11-11T11:41:38.722Z,1.15
2022-11-11T11:44:26.372Z,0.93
2022-11-11T11:47:00.117Z,1.17
2022-11-11T11:49:44.862Z,0.93
2022-11-11T11:52:21.023Z,0.95
2022-11-11T11:54:57.538Z,1.10
2022-11-11T11:57:42.141Z,1.25
2022-11-11T12:00:19.533Z,1.50
2022-11-11T12:03:07.523Z,0.88
2022-11-11T12:05:41.277Z,2.08
2022-11-11T12:08:32.129Z,1.30
2022-11-11T12:11:07.414Z,1.42
2022-11-11T12:13:40.987Z,1.83
2022-11-11T12:16:22.798Z,1.40
2022-11-11T12:19:07.243Z,1.67
2022-11-11T12:21:44.352Z,1.90
2022-11-11T12:24:31.145Z,2.10
2022-11-11T12:27:12.149Z,1.75
2022-11-11T12:29:59.011Z,1.88
2022-11-11T12:32:52.525Z,2.13
2022-11-11T12:35:34.225Z,1.77
2022-11-11T12:38:22.775Z,1.63
2022-11-11T12:41:08.625Z,1.67
2022-11-11T12:43:48.762Z,1.30
2022-11-11T12:49:02.906Z,2.40
2022-11-11T12:51:47.721Z,2.00
2022-11-11T12:54:28.104Z,2.80
2022-11-11T12:57:07.791Z,2.10
2022-11-11T12:59:56.724Z,1.45
2022-11-11T13:02:53.810Z,1.83
2022-11-11T13:05:29.639Z,1.23
2022-11-11T13:08:22.494Z,1.73
2022-11-11T13:10:57.082Z,2.25
2022-11-11T13:13:41.506Z,1.77
2022-11-11T13:16:10.317Z,1.30
2022-11-11T13:18:49.712Z,1.17
2022-11-11T13:21:22.419Z,1.30
2022-11-11T13:23:50.649Z,1.73
2022-11-11T13:26:29.290Z,1.45
2022-11-11T13:29:18.182Z,1.67
2022-11-11T13:31:48.490Z,1.60
2022-11-11T13:34:17.444Z,1.70
2022-11-11T13:36:52.944Z,1.55
2022-11-11T13:39:34.999Z,1.23
2022-11-11T13:42:07.159Z,2.25
2022-11-11T13:44:51.735Z,1.70
2022-11-11T13:47:25.631Z,1.58
2022-11-11T13:49:57.601Z,1.17
2022-11-11T13:52:29.041Z,1.75
2022-11-11T13:55:02.243Z,1.20
2022-11-11T13:57:36.154Z,1.15
2022-11-11T14:00:09.497Z,1.40
2022-11-11T14:02:37.872Z,1.05
2022-11-11T14:05:22.903Z,1.30
2022-11-11T14:08:00.375Z,0.85
2022-11-11T14:10:57.184Z,1.33
2022-11-11T14:13:42.451Z,1.02
2022-11-11T14:16:13.769Z,1.08
2022-11-11T14:18:45.885Z,0.90
2022-11-11T14:21:48.130Z,1.80
2022-11-11T14:24:26.616Z,0.65
2022-11-11T14:27:02.282Z,1.20
2022-11-11T14:29:36.578Z,0.88
2022-11-11T14:32:26.693Z,1.35
2022-11-11T14:35:20.330Z,1.50
2022-11-11T14:38:05.820Z,0.93
2022-11-11T14:40:35.440Z,1.00
2022-11-11T14:43:38.321Z,1.00
2022-11-11T14:46:16.090Z,0.88
2022-11-11T14:49:12.544Z,1.05
2022-11-11T14:51:51.076Z,1.00
2022-11-11T14:54:26.538Z,1.00
2022-11-11T14:57:03.230Z,0.85
2022-11-11T14:59:33.583Z,0.55
2022-11-11T15:02:02.848Z,1.10
2022-11-11T15:04:40.417Z,1.00
2022-11-11T15:07:24.173Z,0.93
2022-11-11T15:10:20.284Z,1.05
2022-11-11T15:13:25.000Z,1.00
2022-11-11T15:16:02.201Z,1.30
2022-11-11T15:18:53.425Z,1.15
2022-11-11T15:21:31.728Z,0.85
2022-11-11T15:24:15.011Z,0.80
2022-11-11T15:26:53.946Z,1.20
2022-11-11T15:29:44.689Z,0.98
2022-11-11T15:32:24.135Z,0.95
2022-11-11T15:35:03.433Z,1.30
2022-11-11T15:37:33.495Z,0.50
2022-11-11T15:40:01.977Z,1.23
2022-11-11T15:42:33.628Z,0.88
2022-11-11T15:45:05.344Z,0.82
2022-11-11T15:47:37.596Z,0.90
2022-11-11T15:50:17.406Z,1.40
2022-11-11T15:52:47.464Z,0.75
2022-11-11T15:55:23.746Z,0.70
2022-11-11T15:57:51.859Z,0.82
2022-11-11T16:00:30.172Z,0.75
2022-11-11T16:02:58.833Z,1.02
2022-11-11T16:05:28.369Z,0.88
2022-11-11T16:07:59.874Z,1.60
2022-11-11T16:10:30.516Z,1.10
2022-11-11T16:13:04.938Z,0.82
2022-11-11T16:15:41.177Z,0.77
2022-11-11T16:18:16.923Z,0.80
2022-11-11T16:20:50.388Z,0.77
2022-11-11T16:23:21.969Z,0.80
2022-11-11T16:25:53.727Z,0.50
2022-11-11T16:28:22.952Z,0.90
2022-11-11T16:30:51.235Z,0.43
2022-11-11T16:33:36.074Z,0.75
2022-11-11T16:36:11.649Z,0.75
2022-11-11T16:38:41.211Z,0.40
2022-11-11T16:41:25.668Z,0.70
2022-11-11T16:43:55.056Z,0.80
2022-11-11T18:42:25.312Z,1.10
2022-11-11T18:44:54.114Z,0.90
2022-11-11T18:47:23.039Z,1.10
2022-11-11T18:49:51.440Z,0.60
2022-11-11T18:52:20.724Z,0.50
2022-11-11T18:54:52.381Z,0.85
2022-11-11T18:57:20.849Z,1.27
2022-11-11T18:59:50.500Z,0.70
2022-11-11T19:02:18.871Z,0.60
2022-11-11T19:04:47.366Z,0.40
2022-11-11T19:07:16.134Z,0.80
2022-11-11T19:09:44.513Z,0.65
2022-11-11T19:12:12.990Z,1.20
2022-11-11T19:14:41.419Z,0.57
2022-11-11T19:17:25.520Z,0.47
2022-11-11T19:19:56.331Z,1.00
2022-11-11T19:22:24.844Z,0.77
2022-11-11T19:24:53.818Z,1.30
2022-11-11T19:27:23.130Z,3.47
2022-11-11T19:29:55.109Z,2.50
2022-11-11T19:32:25.213Z,1.05
2022-11-11T19:37:31.790Z,0.77
2022-11-11T19:40:00.609Z,0.70
2022-11-11T19:42:29.530Z,0.80
2022-11-11T19:44:57.858Z,1.13
2022-11-11T19:47:28.107Z,1.33
2022-11-11T19:52:29.351Z,1.90
2022-11-11T19:55:00.578Z,1.17
2022-11-11T19:57:37.279Z,1.23
2022-11-11T20:00:09.143Z,1.40
